createdAt,value
2022-10-13T00:00:49.288Z,20.53
2022-10-13T00:03:51.019Z,19.23
2022-10-13T00:06:52.587Z,18.55
2022-10-13T00:09:54.160Z,20.48
2022-10-13T00:12:59.496Z,19.13
2022-10-13T00:16:02.048Z,19.30
2022-10-13T00:19:03.637Z,19.00
2022-10-13T00:22:05.206Z,21.13
2022-10-13T00:25:07.249Z,24.83
2022-10-13T00:28:13.355Z,24.40
2022-10-13T00:31:32.296Z,19.57
2022-10-13T00:34:33.879Z,21.37
2022-10-13T00:37:35.501Z,21.15
2022-10-13T00:41:03.518Z,21.98
2022-10-13T00:44:10.537Z,21.85
2022-10-13T00:47:12.107Z,21.47
2022-10-13T00:50:19.760Z,21.70
2022-10-13T00:53:23.649Z,23.35
2022-10-13T00:56:25.568Z,22.63
2022-10-13T00:59:31.790Z,21.30
2022-10-13T01:02:35.786Z,23.53
2022-10-13T01:05:38.467Z,22.37
2022-10-13T01:08:40.063Z,20.92
2022-10-13T01:11:54.347Z,25.95
2022-10-13T01:15:17.981Z,21.15
2022-10-13T01:18:37.297Z,22.13
2022-10-13T01:21:43.375Z,26.77
2022-10-13T01:25:04.008Z,26.15
2022-10-13T01:28:14.639Z,24.63
2022-10-13T01:31:20.551Z,26.55
2022-10-13T01:34:26.127Z,24.77
2022-10-13T01:38:07.983Z,26.03
2022-10-13T01:41:12.376Z,25.15
2022-10-13T01:44:19.981Z,26.55
2022-10-13T01:47:21.550Z,25.02
2022-10-13T01:50:23.238Z,26.17
2022-10-13T01:53:24.876Z,25.00
2022-10-13T01:56:26.552Z,27.58
2022-10-13T01:59:32.240Z,28.73
2022-10-13T02:02:57.118Z,24.05
2022-10-13T02:06:08.444Z,27.73
2022-10-13T02:09:15.277Z,29.03
2022-10-13T02:12:28.903Z,29.58
2022-10-13T02:16:02.914Z,26.63
2022-10-13T02:19:05.338Z,28.70
2022-10-13T02:22:07.080Z,28.00
2022-10-13T02:25:08.768Z,30.00
2022-10-13T02:28:11.213Z,30.40
2022-10-13T02:31:12.853Z,26.05
2022-10-13T02:34:14.567Z,28.23
2022-10-13T02:37:16.200Z,30.73
2022-10-13T02:40:17.761Z,32.97
2022-10-13T02:43:19.662Z,32.85
2022-10-13T02:46:21.936Z,32.60
2022-10-13T02:49:23.558Z,31.23
2022-10-13T02:52:25.131Z,33.97
2022-10-13T02:55:26.696Z,30.87
2022-10-13T02:58:28.372Z,36.75
2022-10-13T03:01:33.369Z,38.58
2022-10-13T03:04:35.110Z,37.78
2022-10-13T03:07:36.728Z,40.37
2022-10-13T03:10:38.287Z,37.37
2022-10-13T03:13:39.908Z,40.92
2022-10-13T03:16:45.622Z,44.20
2022-10-13T03:19:47.186Z,41.92
2022-10-13T03:22:50.017Z,42.57
2022-10-13T03:25:51.816Z,41.10
2022-10-13T03:28:53.438Z,40.85
2022-10-13T03:31:57.881Z,41.28
2022-10-13T03:34:59.486Z,38.75
2022-10-13T03:38:01.059Z,42.47
2022-10-13T03:41:13.735Z,40.80
2022-10-13T03:44:15.316Z,39.75
2022-10-13T03:47:20.122Z,40.92
2022-10-13T03:50:21.706Z,42.15
2022-10-13T03:53:23.359Z,40.37
2022-10-13T03:56:26.232Z,40.07
2022-10-13T03:59:34.179Z,38.63
2022-10-13T04:02:41.312Z,40.42
2022-10-13T04:05:43.372Z,44.95
2022-10-13T04:08:46.235Z,45.23
2022-10-13T04:11:50.793Z,41.87
2022-10-13T04:14:52.457Z,42.47
2022-10-13T04:17:54.047Z,41.33
2022-10-13T04:20:55.637Z,39.70
2022-10-13T04:23:58.207Z,43.80
2022-10-13T04:26:59.774Z,41.77
2022-10-13T04:30:01.430Z,43.63
2022-10-13T04:33:06.735Z,42.90
2022-10-13T04:36:09.232Z,42.05
2022-10-13T04:39:10.819Z,42.30
2022-10-13T04:42:12.458Z,40.30
2022-10-13T04:45:14.377Z,41.97
2022-10-13T04:48:19.000Z,43.67
2022-10-13T04:51:22.261Z,37.08
2022-10-13T04:54:23.819Z,39.83
2022-10-13T04:57:25.374Z,36.87
2022-10-13T05:00:27.028Z,42.35
2022-10-13T05:03:28.866Z,39.63
2022-10-13T05:06:34.672Z,40.65
2022-10-13T05:09:36.224Z,41.03
2022-10-13T05:12:37.782Z,42.87
2022-10-13T05:15:39.475Z,41.55
2022-10-13T05:18:41.167Z,40.03
2022-10-13T05:21:42.757Z,39.30
2022-10-13T05:24:44.740Z,40.30
2022-10-13T05:27:46.402Z,36.77
2022-10-13T05:30:48.012Z,36.00
2022-10-13T05:33:49.920Z,37.22
2022-10-13T05:36:51.611Z,37.38
2022-10-13T05:39:53.883Z,34.07
2022-10-13T05:42:55.515Z,36.67
2022-10-13T05:45:57.152Z,30.30
2022-10-13T05:48:58.728Z,34.10
2022-10-13T05:52:01.791Z,34.08
2022-10-13T05:55:04.128Z,31.90
2022-10-13T05:58:05.725Z,33.47
2022-10-13T06:01:08.313Z,31.58
2022-10-13T06:04:15.139Z,32.20
2022-10-13T06:07:16.803Z,30.08
2022-10-13T06:10:18.750Z,34.80
2022-10-13T06:13:20.359Z,34.83
2022-10-13T06:16:21.960Z,31.10
2022-10-13T06:19:23.500Z,29.27
2022-10-13T06:22:25.103Z,31.67
2022-10-13T06:25:26.737Z,33.70
2022-10-13T06:28:28.409Z,31.00
2022-10-13T06:31:30.107Z,32.40
2022-10-13T06:34:31.664Z,30.92
2022-10-13T06:37:33.273Z,29.40
2022-10-13T06:40:34.817Z,30.00
2022-10-13T06:43:40.395Z,27.00
2022-10-13T06:46:42.295Z,30.05
2022-10-13T06:49:44.017Z,25.35
2022-10-13T06:52:45.707Z,26.92
2022-10-13T06:55:52.213Z,25.20
2022-10-13T06:58:54.338Z,26.00
2022-10-13T07:01:56.036Z,22.38
2022-10-13T07:04:57.677Z,24.95
2022-10-13T07:07:59.392Z,21.70
2022-10-13T07:11:08.713Z,22.73
2022-10-13T07:14:13.996Z,23.20
2022-10-13T07:17:16.014Z,23.70
2022-10-13T07:20:17.688Z,25.27
2022-10-13T07:23:20.038Z,22.83
2022-10-13T07:26:21.734Z,22.53
2022-10-13T07:29:23.391Z,21.90
2022-10-13T07:32:24.980Z,24.67
2022-10-13T07:35:30.538Z,22.63
2022-10-13T07:38:32.739Z,21.17
2022-10-13T07:41:36.027Z,21.70
2022-10-13T07:44:37.590Z,19.87
2022-10-13T07:47:39.260Z,19.15
2022-10-13T07:50:40.913Z,18.02
2022-10-13T07:53:43.058Z,19.15
2022-10-13T07:56:45.091Z,17.63
2022-10-13T07:59:46.725Z,16.57
2022-10-13T08:02:51.892Z,16.25
2022-10-13T08:05:53.871Z,15.50
2022-10-13T08:08:55.529Z,15.88
2022-10-13T08:12:00.919Z,16.30
2022-10-13T08:15:06.340Z,14.13
2022-10-13T08:18:09.784Z,14.00
2022-10-13T08:21:53.146Z,13.88
2022-10-13T08:24:34.947Z,29.02
2022-10-13T08:27:50.096Z,16.03
2022-10-13T08:30:53.665Z,18.10
2022-10-13T08:33:55.364Z,17.20
2022-10-13T08:36:57.770Z,17.88
2022-10-13T08:39:59.474Z,15.45
2022-10-13T08:43:01.873Z,17.03
2022-10-13T08:46:03.538Z,15.33
2022-10-13T08:49:05.382Z,16.33
2022-10-13T08:52:07.062Z,18.00
2022-10-13T08:55:18.603Z,12.50
2022-10-13T08:58:28.067Z,14.33
2022-10-13T09:01:31.693Z,11.67
2022-10-13T09:04:36.538Z,13.20
2022-10-13T09:07:38.444Z,11.57
2022-10-13T09:10:53.183Z,11.75
2022-10-13T09:13:56.290Z,13.03
2022-10-13T09:17:29.305Z,11.73
2022-10-13T09:20:31.036Z,11.55
2022-10-13T09:23:32.663Z,12.60
2022-10-13T09:26:37.531Z,17.58
2022-10-13T09:29:39.776Z,9.90
2022-10-13T09:32:41.533Z,11.00
2022-10-13T09:35:45.199Z,11.50
2022-10-13T09:39:14.209Z,10.73
2022-10-13T09:42:23.555Z,11.40
2022-10-13T09:45:25.273Z,12.03
2022-10-13T09:48:35.048Z,12.37
2022-10-13T09:51:39.032Z,11.77
2022-10-13T09:54:40.753Z,12.25
2022-10-13T09:57:46.115Z,11.93
2022-10-13T10:00:49.292Z,11.10
2022-10-13T10:03:51.183Z,12.33
2022-10-13T10:06:52.804Z,14.38
2022-10-13T10:10:05.463Z,16.58
2022-10-13T10:13:10.318Z,13.60
2022-10-13T10:16:17.825Z,12.43
2022-10-13T10:19:23.342Z,14.57
2022-10-13T10:22:43.376Z,11.45
2022-10-13T10:25:46.072Z,12.18
2022-10-13T10:29:12.599Z,13.65
2022-10-13T10:32:20.443Z,16.20
2022-10-13T10:35:45.634Z,12.73
2022-10-13T10:38:56.393Z,15.40
2022-10-13T10:42:05.505Z,12.95
2022-10-13T10:45:16.769Z,17.38
2022-10-13T10:48:30.793Z,13.43
2022-10-13T10:51:36.832Z,15.10
2022-10-13T10:54:48.439Z,14.20
2022-10-13T10:57:59.983Z,12.43
2022-10-13T11:01:14.187Z,15.88
2022-10-13T11:04:21.983Z,14.63
2022-10-13T11:07:23.674Z,13.77
2022-10-13T11:10:26.952Z,18.30
2022-10-13T11:13:28.622Z,18.35
2022-10-13T11:16:59.365Z,15.55
2022-10-13T11:20:01.077Z,17.63
2022-10-13T11:23:02.679Z,16.50
2022-10-13T11:26:28.317Z,17.05
2022-10-13T11:29:54.883Z,14.23
2022-10-13T11:32:56.607Z,16.33
2022-10-13T11:35:58.191Z,15.43
2022-10-13T11:39:28.224Z,16.90
2022-10-13T11:42:39.453Z,15.50
2022-10-13T11:46:00.823Z,18.10
2022-10-13T11:49:12.642Z,15.63
2022-10-13T11:52:27.792Z,16.73
2022-10-13T11:55:45.673Z,17.23
2022-10-13T11:58:47.233Z,15.02
2022-10-13T12:01:56.253Z,13.20
2022-10-13T12:05:03.837Z,15.45
2022-10-13T12:08:05.558Z,16.17
2022-10-13T12:11:10.308Z,19.50
2022-10-13T12:14:26.394Z,18.60
2022-10-13T12:17:32.460Z,16.13
2022-10-13T12:20:34.103Z,15.68
2022-10-13T12:23:35.727Z,15.83
2022-10-13T12:26:40.666Z,15.97
2022-10-13T12:29:42.249Z,15.93
2022-10-13T12:32:50.266Z,15.15
2022-10-13T12:35:51.851Z,15.95
2022-10-13T12:38:55.327Z,17.33
2022-10-13T12:41:57.225Z,16.67
2022-10-13T12:44:59.728Z,15.45
2022-10-13T12:48:01.460Z,19.17
2022-10-13T12:51:18.917Z,14.98
2022-10-13T12:54:31.329Z,17.80
2022-10-13T12:57:38.374Z,16.43
2022-10-13T13:00:40.052Z,16.15
2022-10-13T13:03:42.484Z,14.10
2022-10-13T13:07:00.399Z,18.13
2022-10-13T13:10:03.462Z,13.87
2022-10-13T13:13:15.030Z,13.97
2022-10-13T13:16:21.240Z,16.55
2022-10-13T13:19:22.856Z,17.27
2022-10-13T13:22:25.135Z,18.05
2022-10-13T13:25:26.931Z,16.10
2022-10-13T13:28:29.479Z,12.53
2022-10-13T13:31:31.192Z,15.55
2022-10-13T13:34:32.762Z,14.40
2022-10-13T13:37:47.905Z,15.05
2022-10-13T13:40:52.532Z,17.07
2022-10-13T13:43:54.099Z,14.73
2022-10-13T13:46:55.651Z,15.20
2022-10-13T13:49:57.322Z,17.83
2022-10-13T13:52:58.984Z,16.83
2022-10-13T13:56:00.541Z,15.70
2022-10-13T13:59:02.120Z,14.47
2022-10-13T14:02:04.031Z,15.98
2022-10-13T14:05:06.141Z,15.63
2022-10-13T14:08:07.895Z,16.42
2022-10-13T14:11:09.515Z,18.50
2022-10-13T14:14:11.088Z,16.77
2022-10-13T14:17:12.656Z,15.93
2022-10-13T14:20:14.270Z,18.65
2022-10-13T14:23:15.843Z,15.95
2022-10-13T14:26:17.474Z,16.67
2022-10-13T14:29:19.126Z,15.07
2022-10-13T14:32:20.997Z,17.17
2022-10-13T14:35:22.859Z,14.25
2022-10-13T14:38:24.608Z,14.95
2022-10-13T14:41:26.322Z,14.93
2022-10-13T14:44:27.916Z,15.90
2022-10-13T14:47:29.491Z,16.40
2022-10-13T14:50:31.061Z,14.65
2022-10-13T14:53:34.477Z,14.93
2022-10-13T14:56:36.180Z,18.40
2022-10-13T14:59:37.767Z,19.00
2022-10-13T15:02:39.414Z,17.60
2022-10-13T15:05:41.402Z,17.23
2022-10-13T15:08:43.212Z,16.88
2022-10-13T15:11:46.303Z,16.43
2022-10-13T15:14:47.876Z,15.47
2022-10-13T15:17:49.521Z,18.00
2022-10-13T15:20:52.478Z,16.50
2022-10-13T15:23:54.087Z,16.17
2022-10-13T15:26:55.648Z,19.67
2022-10-13T15:29:57.202Z,16.87
2022-10-13T15:32:58.931Z,16.40
2022-10-13T15:36:00.559Z,18.02
2022-10-13T15:39:02.243Z,17.60
2022-10-13T15:42:04.816Z,17.63
2022-10-13T15:45:11.081Z,17.93
2022-10-13T15:48:13.079Z,17.90
2022-10-13T15:51:17.874Z,16.50
2022-10-13T15:54:20.531Z,19.23
2022-10-13T15:57:22.109Z,19.87
2022-10-13T16:00:23.707Z,17.37
2022-10-13T16:03:29.657Z,22.90
2022-10-13T16:06:31.365Z,18.65
2022-10-13T16:09:32.936Z,18.02
2022-10-13T16:12:34.532Z,17.53
2022-10-13T16:15:36.130Z,23.47
2022-10-13T16:18:38.582Z,19.75
2022-10-13T16:21:40.209Z,16.73
2022-10-13T16:24:41.782Z,20.42
2022-10-13T16:27:44.741Z,19.93
2022-10-13T16:30:46.429Z,18.77
2022-10-13T16:33:47.986Z,22.50
2022-10-13T16:36:50.220Z,19.33
2022-10-13T16:39:52.252Z,19.42
2022-10-13T16:42:53.893Z,20.33
2022-10-13T16:45:59.961Z,17.50
2022-10-13T16:49:02.096Z,20.58
2022-10-13T16:52:03.671Z,21.75
2022-10-13T16:55:05.919Z,21.50
2022-10-13T16:58:07.554Z,21.23
2022-10-13T17:01:09.460Z,19.70
2022-10-13T17:04:11.193Z,21.17
2022-10-13T17:07:12.996Z,23.08
2022-10-13T17:10:14.577Z,20.08
2022-10-13T17:13:16.156Z,21.90
2022-10-13T17:16:17.946Z,24.93
2022-10-13T17:19:19.516Z,22.67
2022-10-13T17:22:21.090Z,25.30
2022-10-13T17:25:22.695Z,26.60
2022-10-13T17:28:24.289Z,25.93
2022-10-13T17:31:25.966Z,26.03
2022-10-13T17:34:27.521Z,22.60
2022-10-13T17:37:29.208Z,26.63
2022-10-13T17:40:34.239Z,25.25
2022-10-13T17:43:37.050Z,25.30
2022-10-13T17:46:39.762Z,24.73
2022-10-13T17:49:41.594Z,29.25
2022-10-13T17:52:43.285Z,30.88
2022-10-13T17:55:44.890Z,31.55
2022-10-13T17:58:46.481Z,35.43
2022-10-13T18:01:48.220Z,32.10
2022-10-13T18:04:52.576Z,34.80
2022-10-13T18:07:57.081Z,34.72
2022-10-13T18:11:08.479Z,28.20
2022-10-13T18:14:10.523Z,27.63
2022-10-13T18:17:12.116Z,28.53
2022-10-13T18:20:13.800Z,33.92
2022-10-13T18:23:15.536Z,29.85
2022-10-13T18:26:19.219Z,29.15
2022-10-13T18:29:20.891Z,28.90
2022-10-13T18:32:22.662Z,28.93
2022-10-13T18:35:26.583Z,28.77
2022-10-13T18:38:31.568Z,25.63
2022-10-13T18:41:33.273Z,24.58
2022-10-13T18:44:34.845Z,24.30
2022-10-13T18:47:36.421Z,22.40
2022-10-13T18:50:38.655Z,24.17
2022-10-13T18:53:41.662Z,24.73
2022-10-13T18:56:43.240Z,24.98
2022-10-13T18:59:44.785Z,23.40
2022-10-13T19:02:46.679Z,27.27
2022-10-13T19:05:48.243Z,26.52
2022-10-13T19:08:49.815Z,27.90
2022-10-13T19:11:51.579Z,23.85
2022-10-13T19:14:53.185Z,29.63
2022-10-13T19:17:54.742Z,23.37
2022-10-13T19:20:56.392Z,26.35
2022-10-13T19:24:01.125Z,26.35
2022-10-13T19:27:02.695Z,29.15
2022-10-13T19:30:04.583Z,26.00
2022-10-13T19:33:07.269Z,25.50
2022-10-13T19:36:10.300Z,25.75
2022-10-13T19:39:17.138Z,23.58
2022-10-13T19:42:18.794Z,20.98
2022-10-13T19:45:20.377Z,22.30
2022-10-13T19:48:22.441Z,23.53
2022-10-13T19:51:24.018Z,23.65
2022-10-13T19:54:28.003Z,22.48
2022-10-13T19:57:33.082Z,24.20
2022-10-13T20:00:34.799Z,21.63
2022-10-13T20:03:36.424Z,20.43
2022-10-13T20:06:38.150Z,22.30
2022-10-13T20:09:40.581Z,23.60
2022-10-13T20:12:42.153Z,19.23
2022-10-13T20:15:43.871Z,25.50
2022-10-13T20:18:45.470Z,22.23
2022-10-13T20:21:48.099Z,19.88
2022-10-13T20:24:50.521Z,20.70
2022-10-13T20:27:52.087Z,25.25
2022-10-13T20:30:53.674Z,25.47
2022-10-13T20:33:58.442Z,24.83
2022-10-13T20:37:00.096Z,27.35
2022-10-13T20:40:01.681Z,24.50
2022-10-13T20:43:03.212Z,24.30
2022-10-13T20:46:06.535Z,22.23
2022-10-13T20:49:11.403Z,21.23
2022-10-13T20:52:14.048Z,21.42
2022-10-13T20:55:15.622Z,23.00
2022-10-13T20:58:17.161Z,23.55
2022-10-13T21:01:19.708Z,18.40
2022-10-13T21:04:21.341Z,17.43
2022-10-13T21:07:23.161Z,22.98
2022-10-13T21:10:25.116Z,20.23
2022-10-13T21:13:26.660Z,21.75
2022-10-13T21:16:28.626Z,23.30
2022-10-13T21:19:34.281Z,18.43
2022-10-13T21:22:35.852Z,21.25
2022-10-13T21:25:38.170Z,21.45
2022-10-13T21:28:39.868Z,17.45
2022-10-13T21:31:41.549Z,19.17
2022-10-13T21:34:43.129Z,18.53
2022-10-13T21:37:44.795Z,18.35
2022-10-13T21:40:49.335Z,18.45
2022-10-13T21:43:53.340Z,17.45
2022-10-13T21:46:54.917Z,17.07
2022-10-13T21:50:00.593Z,18.57
2022-10-13T21:53:02.157Z,19.60
2022-10-13T21:56:08.029Z,16.15
2022-10-13T21:59:10.917Z,18.77
2022-10-13T22:02:12.563Z,16.77
2022-10-13T22:05:14.173Z,17.80
2022-10-13T22:08:15.744Z,15.23
2022-10-13T22:11:17.492Z,17.77
2022-10-13T22:14:19.085Z,16.02
2022-10-13T22:17:20.962Z,15.57
2022-10-13T22:20:22.767Z,18.43
2022-10-13T22:23:24.326Z,15.65
2022-10-13T22:26:26.739Z,15.32
2022-10-13T22:29:28.337Z,16.60
2022-10-13T22:32:29.901Z,14.70
2022-10-13T22:35:38.293Z,16.00
2022-10-13T22:38:39.875Z,19.27
2022-10-13T22:41:41.545Z,16.60
2022-10-13T22:44:43.103Z,19.02
2022-10-13T22:47:44.635Z,15.63
2022-10-13T22:50:46.219Z,15.30
2022-10-13T22:53:47.952Z,18.60
2022-10-13T22:56:49.569Z,16.05
2022-10-13T22:59:51.133Z,17.67
2022-10-13T23:02:52.675Z,15.53
2022-10-13T23:05:54.263Z,19.70
2022-10-13T23:08:56.051Z,16.17
2022-10-13T23:11:59.807Z,15.52
2022-10-13T23:15:01.639Z,20.25
2022-10-13T23:18:03.175Z,17.10
2022-10-13T23:21:12.428Z,16.60
2022-10-13T23:24:13.986Z,16.27
2022-10-13T23:27:15.560Z,18.23
2022-10-13T23:30:17.205Z,20.75
2022-10-13T23:33:18.751Z,17.37
2022-10-13T23:36:26.175Z,17.73
2022-10-13T23:39:29.509Z,16.80
2022-10-13T23:42:31.087Z,16.95
2022-10-13T23:45:32.660Z,19.35
2022-10-13T23:48:34.250Z,16.97
2022-10-13T23:51:39.640Z,17.83
2022-10-13T23:54:41.192Z,17.52
2022-10-13T23:57:42.754Z,18.17
